This is the latest recevied weather packets stored in our database for station/object VK5TRM-14. If no packets are shown the sender has not sent any weather packets the latest 10 day(s).
| Time | Temp. | Humidity | Pressure | Rain* | Wind** | Luminosity | Snow |
|---|---|---|---|---|---|---|---|
| 1778139905 | 15° C | 47% | 1028.3 hPa | 0 mm | - | - | - |
| 1778139005 | 16.11° C | 41% | 1028 hPa | 0 mm | - | - | - |
| 1778138105 | 16.11° C | 41% | 1028 hPa | 0 mm | - | - | - |
| 1778137205 | 15.56° C | 38% | 1027.9 hPa | 0 mm | - | - | - |
| 1778136305 | 15.56° C | 38% | 1027.9 hPa | 0 mm | - | - | - |
| 1778135405 | 16.67° C | 37% | 1028 hPa | 0 mm | - | - | - |
| 1778134504 | 16.67° C | 37% | 1028 hPa | 0 mm | - | - | - |
| 1778133605 | 15.56° C | 40% | 1028.2 hPa | 0 mm | - | - | - |
| 1778132705 | 15.56° C | 40% | 1028.2 hPa | 0 mm | - | - | - |
| 1778131806 | 16.11° C | 40% | 1028.3 hPa | 0 mm | - | - | - |
| 1778130905 | 16.11° C | 40% | 1028.3 hPa | 0 mm | - | - | - |
| 1778130005 | 16.11° C | 40% | 1028.4 hPa | 0 mm | - | - | - |
| 1778129105 | 16.11° C | 40% | 1028.4 hPa | 0 mm | - | - | - |
| 1778128205 | 15.56° C | 42% | 1028.9 hPa | 0 mm | - | - | - |
| 1778127305 | 15.56° C | 42% | 1028.9 hPa | 0 mm | - | - | - |
| 1778126405 | 15.56° C | 41% | 1028.9 hPa | 0 mm | - | - | - |
| 1778125505 | 15.56° C | 41% | 1028.9 hPa | 0 mm | - | - | - |
| 1778124605 | 16.11° C | 43% | 1029.3 hPa | 0 mm | - | - | - |
| 1778123705 | 16.11° C | 43% | 1029.3 hPa | 0 mm | - | - | - |
| 1778122805 | 15° C | 44% | 1029.5 hPa | 0 mm | - | - | - |
| 1778121905 | 15° C | 44% | 1029.5 hPa | 0 mm | - | - | - |
| 1778121005 | 15° C | 42% | 1029.7 hPa | 0 mm | - | - | - |
| 1778120105 | 15° C | 42% | 1029.7 hPa | 0 mm | - | - | - |
| 1778119205 | 14.44° C | 41% | 1029.9 hPa | 0 mm | - | - | - |
| 1778118305 | 14.44° C | 41% | 1029.9 hPa | 0 mm | - | - | - |
* Rain since midnight (hover to see other rain measurements)
** Current wind speed in m/s (hover to see current wind gust speed)